Time;durP1;ratioP1;P1;durP2;ratioP2;P2;SDS_P1;SDS_P2;PMS_P1;PMS_P2;Temp;Humidity;BMP_temperature;BMP_pressure;BME280_temperature;BME280_humidity;BME280_pressure;Samples;Min_cycle;Max_cycle;Signal;HPM_P1;HPM_P2
2023/06/07 00:00:59;;;;;;;4.03;3.63;;;18.90;96.70;;;;;;5028973;28;20178;-70
2023/06/07 00:03:25;;;;;;;8.77;3.30;;;18.90;96.80;;;;;;5043169;28;20206;-70
2023/06/07 00:05:51;;;;;;;4.07;3.70;;;18.80;96.80;;;;;;5025932;28;20473;-70
2023/06/07 00:08:18;;;;;;;3.20;2.60;;;18.80;96.80;;;;;;5030477;28;20191;-71
2023/06/07 00:10:43;;;;;;;3.20;2.90;;;18.80;96.80;;;;;;5027797;28;20173;-71
2023/06/07 00:13:09;;;;;;;4.10;3.70;;;18.80;96.70;;;;;;5024671;28;20407;-71
2023/06/07 00:15:35;;;;;;;7.17;4.43;;;18.80;96.70;;;;;;5028904;28;20205;-71
2023/06/07 00:18:01;;;;;;;4.17;3.77;;;18.80;96.80;;;;;;5029838;28;20567;-71
2023/06/07 00:20:27;;;;;;;5.57;3.67;;;18.80;96.80;;;;;;5030116;28;20252;-71
2023/06/07 00:22:56;;;;;;;4.80;3.73;;;18.70;96.80;;;;;;5029491;28;20408;-70
2023/06/07 00:25:22;;;;;;;4.80;3.90;;;18.70;96.80;;;;;;5029006;28;20878;-70
2023/06/07 00:27:48;;;;;;;3.67;3.37;;;18.70;96.80;;;;;;5020542;28;20446;-70
2023/06/07 00:30:14;;;;;;;6.47;3.80;;;18.70;96.70;;;;;;5024098;28;20430;-70
2023/06/07 00:32:39;;;;;;;3.80;3.33;;;18.70;96.60;;;;;;5026745;28;20217;-71
2023/06/07 00:35:07;;;;;;;3.57;3.07;;;18.70;96.60;;;;;;5027077;28;20269;-70
2023/06/07 00:37:33;;;;;;;4.53;3.23;;;18.70;96.70;;;;;;5027850;28;20637;-70
2023/06/07 00:39:59;;;;;;;3.50;3.20;;;18.70;96.70;;;;;;5029232;28;20409;-69
2023/06/07 00:42:24;;;;;;;6.00;3.60;;;18.60;96.70;;;;;;5027880;28;20428;-70
2023/06/07 00:44:50;;;;;;;3.37;2.73;;;18.60;96.80;;;;;;5031854;28;20191;-71
2023/06/07 00:47:16;;;;;;;3.57;2.80;;;18.60;96.90;;;;;;5031159;28;20266;-70
2023/06/07 00:49:44;;;;;;;3.50;3.20;;;18.60;97.00;;;;;;5029614;28;20204;-70
2023/06/07 00:52:10;;;;;;;8.30;4.13;;;18.50;96.90;;;;;;5031450;28;20474;-70
2023/06/07 00:54:36;;;;;;;4.10;3.50;;;18.50;97.00;;;;;;5032358;28;20445;-70
2023/06/07 00:57:02;;;;;;;10.00;3.60;;;18.50;97.00;;;;;;5032486;28;20861;-70
2023/06/07 00:59:28;;;;;;;3.93;2.97;;;18.50;97.00;;;;;;5030028;28;20731;-70
2023/06/07 01:01:55;;;;;;;4.50;3.43;;;18.50;97.00;;;;;;5031744;28;20748;-71
2023/06/07 01:04:21;;;;;;;4.10;3.20;;;18.50;97.00;;;;;;5032835;28;20460;-70
2023/06/07 01:06:47;;;;;;;3.93;3.20;;;18.50;97.00;;;;;;5029468;28;20413;-69
2023/06/07 01:09:14;;;;;;;3.07;2.77;;;18.40;96.90;;;;;;5027923;28;20761;-69
2023/06/07 01:11:46;;;;;;;4.20;3.53;;;18.40;96.80;;;;;;5032195;28;20247;-69
2023/06/07 01:14:12;;;;;;;6.37;3.20;;;18.40;96.90;;;;;;5032205;28;20431;-69
2023/06/07 01:16:40;;;;;;;5.10;3.13;;;18.40;96.90;;;;;;5019819;28;20423;-70
2023/06/07 01:19:11;;;;;;;3.47;2.80;;;18.40;96.70;;;;;;5026784;28;20407;-69
2023/06/07 01:21:38;;;;;;;3.37;3.07;;;18.40;96.90;;;;;;5031953;28;20420;-69
2023/06/07 01:24:03;;;;;;;3.23;2.93;;;18.40;97.20;;;;;;5031770;28;20452;-70
2023/06/07 01:26:30;;;;;;;3.40;3.10;;;18.40;96.90;;;;;;5025137;28;20429;-69
2023/06/07 01:29:05;;;;;;;5.30;3.87;;;18.40;97.00;;;;;;5031826;28;20537;-69
2023/06/07 01:31:35;;;;;;;3.67;2.97;;;18.30;96.90;;;;;;5026338;28;20424;-70
2023/06/07 01:34:02;;;;;;;4.40;3.17;;;18.30;96.90;;;;;;5031675;28;20424;-68
2023/06/07 01:36:29;;;;;;;4.87;3.13;;;18.30;96.80;;;;;;5031983;28;20426;-69
2023/06/07 01:38:56;;;;;;;3.63;2.50;;;18.30;96.80;;;;;;5030288;28;20432;-69
2023/06/07 01:41:23;;;;;;;3.50;2.90;;;18.20;96.70;;;;;;5031645;28;20418;-70
2023/06/07 01:43:49;;;;;;;6.20;3.00;;;18.20;96.80;;;;;;5031489;28;20431;-70
2023/06/07 01:46:16;;;;;;;3.90;2.60;;;18.20;96.80;;;;;;5031690;28;20908;-70
2023/06/07 01:48:41;;;;;;;4.93;2.97;;;18.20;96.80;;;;;;5031592;28;20446;-69
2023/06/07 01:51:07;;;;;;;4.03;3.50;;;18.10;96.80;;;;;;5031198;28;20501;-70
2023/06/07 01:53:34;;;;;;;5.30;3.30;;;18.10;96.70;;;;;;5031340;28;20203;-70
2023/06/07 01:56:12;;;;;;;4.23;3.10;;;18.10;96.60;;;;;;5025863;28;20177;-69
2023/06/07 01:58:56;;;;;;;3.70;3.40;;;18.10;96.60;;;;;;5031467;28;20436;-69
2023/06/07 02:01:46;;;;;;;3.77;3.40;;;18.10;96.60;;;;;;5028077;28;20405;-69
2023/06/07 02:04:17;;;;;;;4.33;3.30;;;18.00;96.80;;;;;;5030751;28;20430;-69
2023/06/07 02:06:45;;;;;;;4.40;3.07;;;18.00;96.80;;;;;;5031652;28;20401;-69
2023/06/07 02:09:13;;;;;;;3.73;3.43;;;18.00;96.80;;;;;;5031094;28;20482;-69
2023/06/07 02:11:39;;;;;;;5.20;3.60;;;18.00;96.80;;;;;;5031062;28;20485;-69
2023/06/07 02:14:09;;;;;;;4.07;3.67;;;18.00;96.80;;;;;;5031170;28;20444;-69
2023/06/07 02:16:35;;;;;;;3.27;3.00;;;18.00;96.80;;;;;;5031063;28;20475;-69
2023/06/07 02:19:09;;;;;;;4.43;3.37;;;17.90;96.70;;;;;;5031063;28;20773;-70
2023/06/07 02:21:36;;;;;;;3.27;2.97;;;17.90;96.80;;;;;;5028644;28;20544;-70
2023/06/07 02:24:05;;;;;;;3.67;3.17;;;17.90;96.70;;;;;;5032837;28;20456;-69
2023/06/07 02:26:32;;;;;;;4.67;4.23;;;17.90;96.60;;;;;;5031231;28;20965;-70
2023/06/07 02:28:58;;;;;;;4.27;2.90;;;17.90;96.60;;;;;;5030794;28;20452;-70
2023/06/07 02:31:24;;;;;;;3.90;3.60;;;17.90;96.50;;;;;;5024068;28;20425;-69
2023/06/07 02:33:50;;;;;;;3.77;3.37;;;17.90;96.40;;;;;;5030857;28;20285;-69
2023/06/07 02:36:17;;;;;;;3.80;3.40;;;17.90;96.30;;;;;;5025241;28;20479;-70
2023/06/07 02:38:43;;;;;;;5.20;3.10;;;17.90;96.30;;;;;;5030816;28;20494;-70
2023/06/07 02:41:09;;;;;;;6.20;3.57;;;17.80;96.40;;;;;;5031054;28;20474;-70
2023/06/07 02:43:36;;;;;;;5.13;3.07;;;17.80;96.40;;;;;;5030728;28;20206;-69
2023/06/07 02:46:02;;;;;;;3.80;3.10;;;17.80;96.40;;;;;;5030754;28;20409;-70
2023/06/07 02:48:27;;;;;;;3.70;3.27;;;17.80;96.40;;;;;;5030521;28;20452;-69
2023/06/07 02:50:53;;;;;;;3.80;3.10;;;17.80;96.40;;;;;;5031519;28;20403;-70
2023/06/07 02:53:19;;;;;;;3.90;2.90;;;17.80;96.40;;;;;;5031240;28;20209;-70
2023/06/07 02:55:44;;;;;;;6.13;3.93;;;17.80;96.50;;;;;;5030682;28;20553;-69
2023/06/07 02:58:10;;;;;;;3.77;2.83;;;17.80;96.30;;;;;;5030345;28;20166;-68
2023/06/07 03:00:35;;;;;;;5.83;2.97;;;17.80;96.40;;;;;;5030275;28;20216;-69
2023/06/07 03:03:01;;;;;;;3.50;3.20;;;17.80;96.40;;;;;;5030354;28;20177;-70
2023/06/07 03:05:28;;;;;;;4.07;3.67;;;17.80;96.30;;;;;;5029317;28;20601;-70
2023/06/07 03:07:56;;;;;;;5.17;3.30;;;17.80;96.30;;;;;;5030884;28;20258;-70
2023/06/07 03:10:22;;;;;;;4.23;3.73;;;17.80;96.30;;;;;;5030115;28;20472;-69
2023/06/07 03:12:48;;;;;;;4.20;3.50;;;17.80;96.20;;;;;;5029975;28;20401;-70
2023/06/07 03:15:13;;;;;;;3.97;2.90;;;17.80;96.30;;;;;;5052521;23;20699;-68
2023/06/07 03:17:41;;;;;;;3.80;3.40;;;17.80;96.30;;;;;;5031167;28;20227;-67
2023/06/07 03:20:08;;;;;;;5.83;3.27;;;17.80;96.30;;;;;;5048671;28;20177;-68
2023/06/07 03:22:36;;;;;;;3.93;2.90;;;17.80;96.20;;;;;;5032389;28;20785;-68
2023/06/07 03:25:02;;;;;;;6.80;3.23;;;17.80;96.30;;;;;;5031850;28;20422;-68
2023/06/07 03:27:29;;;;;;;4.80;3.53;;;17.80;96.20;;;;;;5027265;28;20464;-68
2023/06/07 03:29:55;;;;;;;2.77;2.57;;;17.70;96.20;;;;;;5030646;28;20520;-68
2023/06/07 03:32:20;;;;;;;5.00;2.97;;;17.80;96.20;;;;;;5028019;28;20503;-68
2023/06/07 03:34:46;;;;;;;3.20;2.90;;;17.80;96.10;;;;;;5030324;28;20720;-67
2023/06/07 03:37:11;;;;;;;5.73;3.60;;;17.70;96.20;;;;;;5027398;28;20178;-68
2023/06/07 03:39:37;;;;;;;4.33;3.40;;;17.70;96.20;;;;;;5029232;28;20211;-68
2023/06/07 03:42:03;;;;;;;3.83;2.90;;;17.80;96.20;;;;;;5026004;28;20174;-68
2023/06/07 03:44:29;;;;;;;3.37;2.60;;;17.80;96.00;;;;;;5028128;28;20666;-68
2023/06/07 03:46:54;;;;;;;3.50;3.07;;;17.80;95.80;;;;;;5031130;28;20422;-69
2023/06/07 03:49:20;;;;;;;3.47;3.00;;;17.80;95.60;;;;;;5031302;28;20261;-69
2023/06/07 03:51:46;;;;;;;3.40;3.10;;;17.80;95.50;;;;;;5022529;28;20653;-68
2023/06/07 03:54:13;;;;;;;3.10;2.90;;;17.90;95.60;;;;;;5030754;28;20175;-69
2023/06/07 03:56:39;;;;;;;3.80;2.93;;;17.90;95.30;;;;;;5028473;28;20437;-68
2023/06/07 03:59:06;;;;;;;3.33;2.83;;;18.00;95.30;;;;;;5028347;28;20854;-68
2023/06/07 04:01:32;;;;;;;4.20;3.50;;;18.00;95.20;;;;;;5028372;28;20233;-67
2023/06/07 04:03:57;;;;;;;4.23;3.30;;;18.10;94.90;;;;;;5025481;28;20423;-68
2023/06/07 04:06:27;;;;;;;5.53;3.57;;;18.10;95.00;;;;;;5023259;28;20211;-68
2023/06/07 04:08:53;;;;;;;3.83;2.80;;;18.20;94.60;;;;;;5028156;28;20198;-69
2023/06/07 04:11:19;;;;;;;3.73;3.43;;;18.20;94.30;;;;;;5030444;28;20781;-68
2023/06/07 04:13:44;;;;;;;8.03;3.47;;;18.20;94.40;;;;;;5027830;28;20410;-69
2023/06/07 04:16:10;;;;;;;4.27;3.43;;;18.30;94.10;;;;;;5028835;28;20269;-68
2023/06/07 04:18:36;;;;;;;4.57;3.50;;;18.40;93.90;;;;;;5031541;28;20182;-67
2023/06/07 04:21:02;;;;;;;5.43;2.83;;;18.50;93.60;;;;;;5030140;28;20780;-69
2023/06/07 04:23:27;;;;;;;6.60;3.17;;;18.50;93.90;;;;;;5033165;28;20176;-69
2023/06/07 04:25:54;;;;;;;4.90;3.20;;;18.50;93.60;;;;;;5031667;28;20669;-68
2023/06/07 04:28:24;;;;;;;4.03;3.63;;;18.70;93.60;;;;;;5032072;28;20207;-68
2023/06/07 04:30:56;;;;;;;3.87;3.33;;;18.70;93.00;;;;;;5029972;28;20429;-69
2023/06/07 04:33:23;;;;;;;2.77;2.57;;;18.70;93.00;;;;;;5033123;28;20433;-69
2023/06/07 04:35:50;;;;;;;4.00;3.40;;;18.70;92.60;;;;;;5031814;28;20445;-68
2023/06/07 04:38:20;;;;;;;4.47;2.70;;;18.60;92.90;;;;;;5032277;28;20416;-69
2023/06/07 04:40:48;;;;;;;3.40;3.10;;;18.70;92.90;;;;;;5031190;28;20794;-67
2023/06/07 04:43:18;;;;;;;3.90;3.50;;;18.70;92.30;;;;;;5020745;28;20518;-68
2023/06/07 04:45:46;;;;;;;3.73;3.40;;;18.70;92.30;;;;;;5032340;28;20442;-68
2023/06/07 04:48:12;;;;;;;5.00;3.60;;;18.80;92.70;;;;;;5034432;28;20573;-69
2023/06/07 04:50:41;;;;;;;5.87;3.13;;;18.90;92.20;;;;;;5029214;28;20500;-68
2023/06/07 04:53:10;;;;;;;4.57;3.33;;;18.90;92.00;;;;;;5031857;28;20183;-69
2023/06/07 04:55:37;;;;;;;3.80;2.80;;;19.00;91.70;;;;;;5033922;28;20446;-67
2023/06/07 04:58:06;;;;;;;4.30;3.40;;;19.10;90.90;;;;;;5030546;28;20765;-67
2023/06/07 05:00:33;;;;;;;4.67;3.33;;;19.10;91.10;;;;;;5031431;28;20458;-68
2023/06/07 05:03:06;;;;;;;4.50;2.90;;;19.20;90.70;;;;;;5028323;28;20427;-68
2023/06/07 05:05:35;;;;;;;4.20;3.13;;;19.30;90.60;;;;;;5031894;28;20436;-68
2023/06/07 05:08:05;;;;;;;4.80;3.27;;;19.50;90.40;;;;;;5028714;28;20546;-68
2023/06/07 05:10:31;;;;;;;3.80;2.90;;;19.50;90.40;;;;;;5030200;28;20416;-69
2023/06/07 05:12:56;;;;;;;3.70;2.90;;;19.50;90.40;;;;;;5034163;28;20506;-68
2023/06/07 05:15:23;;;;;;;6.90;3.50;;;19.50;90.40;;;;;;5029860;28;20877;-68
2023/06/07 05:17:49;;;;;;;4.43;3.63;;;19.70;89.90;;;;;;5033199;28;20201;-69
2023/06/07 05:20:15;;;;;;;3.50;3.20;;;19.70;90.00;;;;;;5033491;28;20819;-68
2023/06/07 05:22:42;;;;;;;3.43;3.10;;;19.70;90.00;;;;;;5038696;28;20417;-68
2023/06/07 05:25:10;;;;;;;6.43;3.13;;;19.80;89.50;;;;;;5036329;28;21014;-69
2023/06/07 05:27:36;;;;;;;3.93;2.80;;;19.90;88.60;;;;;;5038343;28;20415;-69
2023/06/07 05:30:04;;;;;;;5.10;3.50;;;20.00;89.00;;;;;;5039912;28;20432;-69
2023/06/07 05:32:31;;;;;;;4.67;2.90;;;20.20;89.00;;;;;;5040507;28;20422;-68
2023/06/07 05:34:57;;;;;;;6.73;3.50;;;20.20;88.50;;;;;;5022770;28;20432;-68
2023/06/07 05:37:24;;;;;;;4.70;3.33;;;20.20;89.00;;;;;;5030277;28;20409;-67
2023/06/07 05:39:50;;;;;;;5.20;3.20;;;20.50;88.50;;;;;;5031750;28;20416;-68
2023/06/07 05:42:16;;;;;;;4.10;3.20;;;20.60;87.70;;;;;;5026813;28;20415;-68
2023/06/07 05:44:43;;;;;;;5.63;3.50;;;20.80;87.20;;;;;;5032780;28;20492;-68
2023/06/07 05:47:09;;;;;;;4.67;2.80;;;21.00;86.50;;;;;;5033452;28;20172;-68
2023/06/07 05:49:35;;;;;;;3.80;2.90;;;21.10;86.60;;;;;;5032110;28;20581;-69
2023/06/07 05:52:00;;;;;;;3.17;2.87;;;21.00;85.60;;;;;;5026703;28;20174;-68
2023/06/07 05:54:26;;;;;;;4.90;4.13;;;21.10;86.50;;;;;;5021741;28;20236;-68
2023/06/07 05:56:52;;;;;;;3.13;2.63;;;21.40;86.00;;;;;;5022825;28;20186;-68
2023/06/07 05:59:17;;;;;;;7.27;3.03;;;21.30;86.10;;;;;;5024355;28;20212;-69
2023/06/07 06:01:44;;;;;;;3.73;3.07;;;21.30;85.90;;;;;;5026452;28;20550;-69
2023/06/07 06:04:10;;;;;;;5.40;2.93;;;21.60;84.90;;;;;;5023303;28;20206;-68
2023/06/07 06:06:38;;;;;;;6.23;3.40;;;21.50;85.60;;;;;;5025275;28;20453;-68
2023/06/07 06:09:04;;;;;;;4.03;3.30;;;21.60;85.70;;;;;;5026162;28;20474;-68
2023/06/07 06:11:30;;;;;;;4.20;3.27;;;21.80;84.80;;;;;;5031382;28;20440;-69
2023/06/07 06:13:56;;;;;;;3.60;3.30;;;21.60;84.00;;;;;;5032322;28;20416;-69
2023/06/07 06:16:22;;;;;;;4.10;3.17;;;21.70;84.00;;;;;;5031236;28;20696;-68
2023/06/07 06:18:47;;;;;;;6.40;3.60;;;21.70;82.90;;;;;;5029071;28;20908;-68
2023/06/07 06:21:13;;;;;;;4.13;3.10;;;21.80;83.20;;;;;;5029467;28;20180;-68
2023/06/07 06:23:39;;;;;;;5.07;3.07;;;21.70;82.70;;;;;;5028769;28;20278;-68
2023/06/07 06:26:04;;;;;;;4.47;3.10;;;21.70;82.60;;;;;;5026002;28;20202;-68
2023/06/07 06:28:30;;;;;;;5.60;2.97;;;21.90;83.30;;;;;;5032430;28;20704;-69
2023/06/07 06:30:55;;;;;;;4.00;3.60;;;22.00;82.60;;;;;;5028815;28;20556;-68
2023/06/07 06:33:21;;;;;;;3.93;2.70;;;21.80;81.70;;;;;;5031102;28;20231;-68
2023/06/07 06:35:47;;;;;;;3.40;2.57;;;21.70;81.30;;;;;;5029307;28;20277;-69
2023/06/07 06:38:13;;;;;;;4.70;3.43;;;21.90;80.70;;;;;;5028606;28;20667;-69
2023/06/07 06:40:39;;;;;;;3.67;3.27;;;22.20;80.50;;;;;;5029010;28;20189;-74
2023/06/07 06:43:04;;;;;;;4.90;2.90;;;22.00;80.00;;;;;;5028689;28;20190;-69
2023/06/07 06:45:30;;;;;;;8.70;2.90;;;22.50;80.50;;;;;;5031333;28;20799;-69
2023/06/07 06:47:58;;;;;;;7.00;3.53;;;22.30;79.30;;;;;;5032031;28;20198;-69
2023/06/07 06:50:23;;;;;;;2.40;2.20;;;22.50;77.90;;;;;;5026466;28;20221;-69
2023/06/07 06:52:50;;;;;;;10.43;3.13;;;22.50;77.00;;;;;;5028720;28;20462;-68
2023/06/07 06:55:15;;;;;;;5.00;2.63;;;22.90;75.80;;;;;;5024750;28;20954;-69
2023/06/07 06:57:41;;;;;;;6.40;2.87;;;23.00;74.20;;;;;;5028053;28;20452;-70
2023/06/07 07:00:11;;;;;;;3.50;2.70;;;23.20;74.50;;;;;;5022670;28;20272;-69
2023/06/07 07:02:37;;;;;;;5.00;3.07;;;23.60;73.60;;;;;;5027552;28;20177;-67
2023/06/07 07:05:06;;;;;;;4.17;2.70;;;23.70;73.10;;;;;;5025010;28;20449;-68
2023/06/07 07:07:32;;;;;;;6.60;2.70;;;24.10;70.30;;;;;;5029280;28;20571;-67
2023/06/07 07:09:59;;;;;;;4.10;2.50;;;24.60;69.20;;;;;;5028689;28;20548;-68
2023/06/07 07:12:25;;;;;;;2.90;2.40;;;24.80;67.70;;;;;;5031246;28;20473;-68
2023/06/07 07:14:51;;;;;;;2.60;2.40;;;25.10;67.10;;;;;;5027809;28;20465;-69
2023/06/07 07:17:17;;;;;;;5.00;2.67;;;25.20;65.60;;;;;;5030522;28;20905;-68
2023/06/07 07:19:42;;;;;;;3.67;2.60;;;24.80;67.20;;;;;;5027155;28;20191;-67
2023/06/07 07:22:08;;;;;;;2.97;2.67;;;25.00;66.50;;;;;;5029182;28;20422;-67
2023/06/07 07:24:33;;;;;;;2.50;2.30;;;24.80;67.60;;;;;;5025831;28;20266;-67
2023/06/07 07:26:59;;;;;;;10.50;3.00;;;24.80;67.30;;;;;;5028661;28;20234;-67
2023/06/07 07:29:25;;;;;;;3.00;2.70;;;25.10;67.00;;;;;;5030694;28;20206;-67
2023/06/07 07:31:51;;;;;;;4.87;2.23;;;25.20;66.90;;;;;;5027631;28;20514;-67
2023/06/07 07:34:17;;;;;;;7.03;2.33;;;25.00;66.00;;;;;;5029830;28;20433;-71
2023/06/07 07:36:44;;;;;;;2.90;2.70;;;25.00;66.00;;;;;;5025465;28;20215;-70
2023/06/07 07:39:15;;;;;;;4.70;2.57;;;24.50;66.70;;;;;;5029209;28;20958;-69
2023/06/07 07:41:41;;;;;;;5.63;2.83;;;24.90;67.10;;;;;;5025749;28;20437;-70
2023/06/07 07:44:07;;;;;;;3.10;2.53;;;24.40;67.50;;;;;;5030948;28;20912;-70
2023/06/07 07:46:32;;;;;;;5.50;3.37;;;24.40;68.70;;;;;;5030447;28;20297;-70
2023/06/07 07:48:58;;;;;;;6.47;3.17;;;24.10;66.60;;;;;;5031225;28;20693;-70
2023/06/07 07:51:23;;;;;;;4.93;3.10;;;24.10;65.70;;;;;;5025067;28;20181;-69
2023/06/07 07:53:52;;;;;;;3.97;3.00;;;24.30;65.00;;;;;;5028171;28;20178;-69
2023/06/07 07:56:18;;;;;;;3.37;2.60;;;24.60;65.60;;;;;;5029807;28;20566;-70
2023/06/07 07:58:48;;;;;;;5.43;3.33;;;25.00;65.60;;;;;;5025816;28;20900;-70
2023/06/07 08:01:15;;;;;;;3.60;2.67;;;25.40;64.00;;;;;;5031655;28;20425;-69
2023/06/07 08:03:41;;;;;;;3.80;3.13;;;25.70;64.30;;;;;;5027475;28;20641;-69
2023/06/07 08:06:06;;;;;;;3.07;2.80;;;26.20;62.40;;;;;;5030925;28;20528;-69
2023/06/07 08:08:32;;;;;;;3.50;3.20;;;27.10;61.30;;;;;;5023806;28;20466;-70
2023/06/07 08:10:58;;;;;;;3.33;3.03;;;27.00;60.50;;;;;;5029390;28;20559;-69
2023/06/07 08:13:24;;;;;;;8.30;3.13;;;27.00;60.60;;;;;;5030739;28;20234;-69
2023/06/07 08:15:49;;;;;;;2.87;2.67;;;26.80;61.80;;;;;;5022490;28;20446;-69
2023/06/07 08:18:16;;;;;;;4.13;2.90;;;26.50;61.80;;;;;;5030807;28;20516;-68
2023/06/07 08:20:42;;;;;;;3.77;3.03;;;26.20;62.80;;;;;;5023988;28;20176;-71
2023/06/07 08:23:07;;;;;;;2.67;2.47;;;26.20;61.90;;;;;;5030913;28;20429;-70
2023/06/07 08:25:33;;;;;;;4.87;3.93;;;25.70;63.10;;;;;;5023657;28;20202;-69
2023/06/07 08:27:58;;;;;;;4.47;3.07;;;25.80;63.60;;;;;;5028886;28;20261;-69
2023/06/07 08:30:24;;;;;;;5.13;2.90;;;25.80;62.60;;;;;;5029795;28;20179;-69
2023/06/07 08:32:50;;;;;;;4.30;3.20;;;26.30;62.80;;;;;;5029497;28;20579;-68
2023/06/07 08:35:16;;;;;;;4.00;2.80;;;26.20;63.10;;;;;;5031052;28;20187;-68
2023/06/07 08:37:42;;;;;;;5.77;3.20;;;26.10;63.10;;;;;;5023644;28;20169;-69
2023/06/07 08:40:09;;;;;;;3.07;2.40;;;26.00;64.70;;;;;;5030924;28;20619;-68
2023/06/07 08:42:37;;;;;;;5.17;3.67;;;25.80;61.40;;;;;;5024966;28;20190;-68
2023/06/07 08:45:03;;;;;;;3.67;2.70;;;25.60;62.50;;;;;;5030260;28;20445;-69
2023/06/07 08:47:29;;;;;;;3.73;3.10;;;25.60;61.50;;;;;;5030605;28;20504;-67
2023/06/07 08:49:59;;;;;;;3.97;2.97;;;25.80;61.30;;;;;;5026463;28;20971;-68
2023/06/07 08:52:25;;;;;;;6.43;2.90;;;26.10;62.00;;;;;;5029686;28;20417;-73
2023/06/07 08:54:55;;;;;;;4.10;2.80;;;26.30;61.30;;;;;;5032058;28;20430;-70
2023/06/07 08:57:21;;;;;;;6.60;2.90;;;26.70;59.90;;;;;;5033545;28;20410;-66
2023/06/07 08:59:48;;;;;;;3.97;3.43;;;27.20;59.30;;;;;;5022779;28;20471;-69
2023/06/07 09:02:14;;;;;;;5.73;3.30;;;27.50;59.50;;;;;;5025860;28;20772;-67
2023/06/07 09:04:40;;;;;;;3.87;3.57;;;28.60;58.50;;;;;;5030939;28;20418;-68
2023/06/07 09:07:07;;;;;;;4.43;2.97;;;28.60;57.00;;;;;;5028950;28;20211;-68
2023/06/07 09:09:35;;;;;;;3.63;3.33;;;28.30;57.50;;;;;;5031604;28;20462;-68
2023/06/07 09:12:01;;;;;;;4.27;2.50;;;29.20;57.90;;;;;;5033676;28;20688;-68
2023/06/07 09:14:28;;;;;;;4.93;3.00;;;28.80;57.30;;;;;;5030375;28;20476;-67
2023/06/07 09:16:59;;;;;;;3.87;2.90;;;29.40;56.80;;;;;;5029005;28;20207;-66
2023/06/07 09:19:37;;;;;;;4.23;2.93;;;29.50;55.90;;;;;;5033932;28;20976;-66
2023/06/07 09:22:08;;;;;;;8.70;3.43;;;29.50;55.60;;;;;;5033942;28;20418;-68
2023/06/07 09:24:35;;;;;;;3.30;2.70;;;29.70;55.30;;;;;;5027964;28;20418;-68
2023/06/07 09:27:02;;;;;;;3.43;3.13;;;29.40;55.70;;;;;;5030657;28;20415;-68
2023/06/07 09:29:29;;;;;;;8.40;3.17;;;29.90;55.10;;;;;;5033171;28;20497;-68
2023/06/07 09:32:25;;;;;;;4.40;3.20;;;30.50;54.00;;;;;;5030210;28;20468;-66
2023/06/07 09:34:53;;;;;;;3.23;2.90;;;29.90;54.80;;;;;;5030894;28;20509;-68
2023/06/07 09:37:21;;;;;;;4.63;2.70;;;29.70;54.80;;;;;;5028800;28;20446;-67
2023/06/07 09:39:52;;;;;;;5.60;2.57;;;28.80;55.30;;;;;;5031277;28;20417;-66
2023/06/07 09:42:18;;;;;;;3.07;2.67;;;28.60;55.10;;;;;;5027904;28;20414;-67
2023/06/07 09:44:44;;;;;;;3.37;3.07;;;28.10;55.80;;;;;;5032171;28;20439;-67
2023/06/07 09:47:21;;;;;;;3.40;2.90;;;28.20;56.40;;;;;;5033460;28;20210;-67
2023/06/07 09:49:47;;;;;;;4.47;3.30;;;27.40;57.20;;;;;;5027921;28;20466;-67
2023/06/07 09:52:15;;;;;;;3.20;2.90;;;27.10;57.60;;;;;;5021546;28;20548;-69
2023/06/07 09:54:44;;;;;;;3.13;2.83;;;26.80;58.40;;;;;;5021264;28;20441;-67
2023/06/07 09:57:23;;;;;;;4.03;3.03;;;26.70;59.00;;;;;;5025359;28;20848;-67
2023/06/07 10:00:00;;;;;;;3.23;2.93;;;26.70;59.30;;;;;;5025144;28;20463;-67
2023/06/07 10:02:29;;;;;;;2.63;2.43;;;27.20;59.20;;;;;;5022606;28;20938;-68
2023/06/07 10:04:56;;;;;;;7.47;2.90;;;27.70;57.40;;;;;;5024130;28;20453;-67
2023/06/07 10:07:30;;;;;;;2.70;2.50;;;27.60;57.90;;;;;;5025671;28;20673;-68
2023/06/07 10:09:58;;;;;;;2.87;2.57;;;27.40;58.60;;;;;;5026595;28;20544;-68
2023/06/07 10:12:28;;;;;;;4.10;3.33;;;27.40;58.90;;;;;;5026822;28;20422;-66
2023/06/07 10:14:54;;;;;;;2.87;2.67;;;27.00;58.60;;;;;;5028656;28;20460;-67
2023/06/07 10:17:45;;;;;;;3.47;2.67;;;27.50;58.70;;;;;;5031822;28;20408;-68
2023/06/07 10:20:16;;;;;;;3.13;2.80;;;27.80;57.80;;;;;;4997989;28;20834;-67
2023/06/07 10:22:44;;;;;;;2.97;2.67;;;27.70;58.10;;;;;;5031045;28;20410;-68
2023/06/07 10:25:16;;;;;;;3.60;3.00;;;27.50;58.00;;;;;;5027260;28;20438;-68
2023/06/07 10:27:53;;;;;;;3.60;2.50;;;27.90;57.60;;;;;;5032628;28;20823;-68
2023/06/07 10:30:22;;;;;;;3.50;2.57;;;27.80;57.80;;;;;;5032706;28;20414;-68
2023/06/07 10:32:48;;;;;;;4.17;2.77;;;27.40;58.20;;;;;;5026693;28;20494;-69
2023/06/07 10:35:16;;;;;;;3.83;2.60;;;28.10;57.50;;;;;;5032467;28;20433;-69
2023/06/07 10:37:43;;;;;;;2.80;2.60;;;27.60;57.00;;;;;;5026230;28;20780;-67
2023/06/07 10:40:14;;;;;;;3.60;3.10;;;27.90;57.10;;;;;;5053669;22;20385;-70
2023/06/07 10:42:43;;;;;;;2.70;2.50;;;27.60;57.10;;;;;;5032171;28;20417;-70
2023/06/07 10:45:14;;;;;;;2.87;2.67;;;27.90;57.20;;;;;;5033002;28;20424;-70
2023/06/07 10:47:41;;;;;;;6.07;3.13;;;28.30;56.90;;;;;;5029302;28;20413;-71
2023/06/07 10:50:07;;;;;;;2.70;2.50;;;27.80;56.70;;;;;;5026933;28;20464;-71
2023/06/07 10:52:33;;;;;;;3.30;2.70;;;27.40;56.80;;;;;;5032113;28;20512;-70
2023/06/07 10:54:58;;;;;;;3.60;2.77;;;27.60;56.80;;;;;;5032193;28;20501;-70
2023/06/07 10:57:37;;;;;;;3.43;2.53;;;27.40;57.00;;;;;;5032394;28;20590;-70
2023/06/07 11:00:29;;;;;;;3.03;2.73;;;27.80;56.40;;;;;;5032132;28;20265;-70
2023/06/07 11:03:06;;;;;;;3.70;3.30;;;27.70;56.50;;;;;;5024573;28;20399;-70
2023/06/07 11:06:01;;;;;;;3.10;2.80;;;27.60;56.90;;;;;;5031923;28;20757;-71
2023/06/07 11:08:31;;;;;;;3.43;3.10;;;27.60;56.30;;;;;;5031988;28;20510;-70
2023/06/07 11:10:59;;;;;;;3.30;3.00;;;27.70;56.20;;;;;;5038983;28;20579;-70
2023/06/07 11:13:45;;;;;;;5.60;3.10;;;27.60;56.20;;;;;;5031566;28;20413;-70
2023/06/07 11:16:23;;;;;;;3.40;2.90;;;27.70;55.60;;;;;;5021354;28;20445;-69
2023/06/07 11:19:05;;;;;;;5.20;2.50;;;27.80;55.70;;;;;;5031869;28;20544;-69
2023/06/07 11:21:54;;;;;;;3.20;2.77;;;28.20;54.90;;;;;;5031418;28;20445;-69
2023/06/07 11:24:20;;;;;;;3.77;2.90;;;28.40;55.00;;;;;;5029536;28;20408;-69
2023/06/07 11:26:50;;;;;;;3.17;2.87;;;28.40;54.50;;;;;;5030662;28;20442;-69
2023/06/07 11:29:17;;;;;;;5.00;2.40;;;28.30;54.80;;;;;;5031471;28;20461;-69
2023/06/07 11:31:55;;;;;;;3.20;2.13;;;28.10;54.70;;;;;;5031168;28;20429;-69
2023/06/07 11:34:21;;;;;;;2.63;2.43;;;28.20;54.90;;;;;;5031186;28;20470;-69
2023/06/07 11:36:46;;;;;;;3.90;3.17;;;28.60;54.50;;;;;;5031276;28;20756;-70
2023/06/07 11:39:16;;;;;;;2.73;2.50;;;28.40;53.40;;;;;;5031452;28;20472;-69
2023/06/07 11:41:42;;;;;;;5.17;3.50;;;28.50;53.50;;;;;;5027201;28;20690;-69
2023/06/07 11:44:09;;;;;;;5.80;3.20;;;28.90;53.10;;;;;;5031313;28;20418;-70
2023/06/07 11:46:36;;;;;;;3.50;3.10;;;29.10;53.50;;;;;;5031035;28;20461;-70
2023/06/07 11:49:11;;;;;;;3.03;2.73;;;29.30;52.80;;;;;;5030961;28;20459;-70
2023/06/07 11:51:38;;;;;;;3.20;2.50;;;29.30;52.90;;;;;;5031057;28;20433;-70
2023/06/07 11:54:04;;;;;;;3.80;3.00;;;28.90;52.90;;;;;;5030977;28;20860;-70
2023/06/07 11:56:30;;;;;;;3.53;2.90;;;28.50;53.30;;;;;;5031051;28;20505;-70
2023/06/07 11:58:58;;;;;;;3.10;2.80;;;28.40;53.80;;;;;;5030939;28;20186;-70
2023/06/07 12:01:25;;;;;;;4.13;3.43;;;28.60;54.10;;;;;;5028883;28;20796;-69
2023/06/07 12:03:51;;;;;;;2.77;2.57;;;28.50;53.10;;;;;;5031280;28;20444;-71
2023/06/07 12:06:18;;;;;;;3.50;2.63;;;28.20;53.30;;;;;;5031231;28;20496;-70
2023/06/07 12:08:49;;;;;;;3.13;2.63;;;28.00;53.90;;;;;;5030592;28;20506;-70
2023/06/07 12:11:14;;;;;;;2.80;2.60;;;27.90;54.40;;;;;;5031279;28;20425;-70
2023/06/07 12:13:40;;;;;;;3.37;3.07;;;28.10;54.70;;;;;;5030992;28;20977;-70
2023/06/07 12:16:07;;;;;;;2.87;2.67;;;27.90;55.00;;;;;;5030984;28;20728;-70
2023/06/07 12:18:38;;;;;;;2.97;2.67;;;27.90;55.20;;;;;;5031154;28;20183;-70
2023/06/07 12:21:09;;;;;;;3.20;2.90;;;27.70;55.10;;;;;;5031132;28;20464;-70
2023/06/07 12:23:36;;;;;;;6.53;2.63;;;27.40;55.20;;;;;;5031088;28;20448;-70
2023/06/07 12:26:08;;;;;;;4.57;2.50;;;27.50;55.60;;;;;;5027753;28;20418;-70
2023/06/07 12:28:34;;;;;;;4.97;2.73;;;27.50;55.40;;;;;;5030757;28;20457;-71
2023/06/07 12:31:00;;;;;;;3.10;2.80;;;27.80;55.20;;;;;;5030948;28;20438;-71
2023/06/07 12:33:26;;;;;;;4.07;3.03;;;27.70;55.00;;;;;;5031227;28;20190;-69
2023/06/07 12:35:53;;;;;;;4.30;2.50;;;27.80;54.20;;;;;;5031049;28;20183;-70
2023/06/07 12:38:23;;;;;;;2.50;2.30;;;28.00;53.70;;;;;;5032807;28;20435;-70
2023/06/07 12:40:49;;;;;;;4.37;2.80;;;27.90;54.00;;;;;;5022572;28;20978;-71
2023/06/07 12:43:15;;;;;;;3.30;2.80;;;27.90;54.30;;;;;;5034518;28;20422;-70
2023/06/07 12:45:40;;;;;;;4.07;3.23;;;27.90;54.70;;;;;;5025993;28;20183;-70
2023/06/07 12:48:06;;;;;;;3.37;2.80;;;27.90;54.90;;;;;;5023442;28;20472;-70